logo tempoitalia

Diretta Meteo Altus, Stati Uniti (USA)domenica 30 agosto ore 23:55

Mappa
Sereno 30 °C Sereno 24 Ore: T.min 25 T.max 41
Ponente Sud-Est Km/h 22.2 Punto di rugiada: 12 °C Umidità: 33% Visibilità: 10 Km
Il sole sorge alle: 07:08 Il sole tramonta alle: 20:06
30 Agosto 2026 23:55 tempo osservato: Sereno Sereno 30 33 1012 vento: Nord SE 22.2
30 Agosto 2026 22:55 tempo osservato: Sereno Sereno 32 29 1011 vento: Nord SE 22.2
30 Agosto 2026 21:55 tempo osservato: Sereno Sereno 33 27 1011 vento: Nord SE 18.5
30 Agosto 2026 20:55 tempo osservato: Sereno Sereno 34 28 1010 vento: Nord SE 16.7
30 Agosto 2026 19:55 tempo osservato: Sereno Sereno 36 23 1010 vento: Nord SE 22.2
30 Agosto 2026 18:55 tempo osservato: Sereno Sereno 39 20 1010 vento: Nord S/SE 25.9
30 Agosto 2026 17:55 tempo osservato: Sereno Sereno 40 19 1010 vento: Nord S 22.2
30 Agosto 2026 16:55 tempo osservato: Sereno Sereno 41 19 1010 vento: Nord S/SE 25.9
30 Agosto 2026 15:55 tempo osservato: Sereno Sereno 40 19 1011 vento: Nord S/SE 22.2
30 Agosto 2026 15:40 tempo osservato: Sereno Sereno 40 20 1011 vento: Nord S/SE 27.8
30 Agosto 2026 15:31 tempo osservato: Poco Nuvoloso Poco Nuvoloso 39 21 1011 vento: Nord S/SO 20.3
30 Agosto 2026 15:00 tempo osservato: Poco Nuvoloso Poco Nuvoloso 40 20 1011 vento: Nord S 24
30 Agosto 2026 14:55 tempo osservato: Poco Nuvoloso Poco Nuvoloso 40 20 1011 vento: Nord S/SE 27.8
30 Agosto 2026 14:54 tempo osservato: Poco Nuvoloso Poco Nuvoloso 40 20 1011 vento: Nord S/SE 25.9
30 Agosto 2026 14:50 tempo osservato: Poco Nuvoloso Poco Nuvoloso 40 20 1011 vento: Nord S 20.3
30 Agosto 2026 14:45 tempo osservato: Sereno Sereno 40 20 1011 vento: Nord S 24
30 Agosto 2026 14:41 tempo osservato: Sereno Sereno 40 21 1011 vento: Nord S/SO 27.8
30 Agosto 2026 14:29 tempo osservato: Sereno Sereno 40 21 1011 vento: Nord S 24
30 Agosto 2026 14:24 tempo osservato: Sereno Sereno 40 21 1012 vento: Nord S/SE 24
30 Agosto 2026 13:55 tempo osservato: Nuvoloso Nuvoloso 40 23 1012 vento: Nord S/SE 22.2
30 Agosto 2026 13:51 tempo osservato: Nuvoloso Nuvoloso 39 24 1012 vento: Nord S/SE 31.5
30 Agosto 2026 12:55 tempo osservato: Sereno Sereno 38 25 1013 vento: Nord S 27.8
30 Agosto 2026 11:55 tempo osservato: Sereno Sereno 37 28 1014 vento: Nord S/SO 25.9
30 Agosto 2026 10:55 tempo osservato: Sereno Sereno 36 30 1014 vento: Nord S/SO 29.6
30 Agosto 2026 09:55 tempo osservato: Sereno Sereno 33 38 1015 vento: Nord S 29.6
30 Agosto 2026 08:55 tempo osservato: Sereno Sereno 30 45 1015 vento: Nord S/SE 18.5
30 Agosto 2026 07:55 tempo osservato: Sereno Sereno 26 54 1014 vento: Nord SE 11.1
30 Agosto 2026 06:55 tempo osservato: Sereno Sereno 25 57 1013 vento: Nord SE 13
30 Agosto 2026 05:55 tempo osservato: Sereno Sereno 25 53 1013 vento: Nord SE 13
30 Agosto 2026 04:55 tempo osservato: Sereno Sereno 25 50 1012 vento: Nord SE 13
30 Agosto 2026 03:55 tempo osservato: Sereno Sereno 25 50 1012 vento: Nord SE 11.1
30 Agosto 2026 02:55 tempo osservato: Sereno Sereno 26 47 1013 vento: Nord S/SE 11.1
30 Agosto 2026 01:55 tempo osservato: Sereno Sereno 27 44 1013 vento: Nord S/SE 18.5
30 Agosto 2026 00:55 tempo osservato: Sereno Sereno 29 37 1012 vento: Nord S/SE 20.3